createdAt,value
2023-01-29T00:00:07.986Z,11.90
2023-01-29T00:00:18.355Z,12.00
2023-01-29T00:00:27.929Z,12.00
2023-01-29T00:00:37.927Z,13.00
2023-01-29T00:00:47.909Z,12.90
2023-01-29T00:00:58.018Z,12.70
2023-01-29T00:01:08.042Z,11.40
2023-01-29T00:01:17.958Z,11.10
2023-01-29T00:01:27.976Z,11.00
2023-01-29T00:01:38.022Z,11.10
2023-01-29T00:01:48.118Z,11.40
2023-01-29T00:01:58.062Z,11.20
2023-01-29T00:02:08.033Z,11.80
2023-01-29T00:02:18.127Z,11.10
2023-01-29T00:02:27.950Z,11.40
2023-01-29T00:02:37.902Z,11.50
2023-01-29T00:02:48.097Z,12.60
2023-01-29T00:02:58.044Z,12.50
2023-01-29T00:03:08.015Z,12.80
2023-01-29T00:03:18.005Z,12.80
2023-01-29T00:03:27.927Z,12.90
2023-01-29T00:03:37.980Z,12.60
2023-01-29T00:03:47.971Z,12.10
2023-01-29T00:03:57.980Z,11.80
2023-01-29T00:04:07.900Z,11.80
2023-01-29T00:04:17.938Z,12.10
2023-01-29T00:04:27.998Z,12.10
2023-01-29T00:04:37.899Z,12.30
2023-01-29T00:04:47.971Z,11.70
2023-01-29T00:04:59.207Z,12.50
2023-01-29T00:05:25.968Z,11.90
2023-01-29T00:05:27.456Z,12.30
2023-01-29T00:05:28.699Z,11.90
2023-01-29T00:05:37.961Z,12.10
2023-01-29T00:05:47.994Z,12.10
2023-01-29T00:05:57.953Z,10.80
2023-01-29T00:06:07.972Z,10.70
2023-01-29T00:06:17.952Z,10.30
2023-01-29T00:06:27.971Z,11.20
2023-01-29T00:06:37.930Z,11.00
2023-01-29T00:06:48.028Z,10.80
2023-01-29T00:06:57.923Z,10.80
2023-01-29T00:07:07.983Z,11.50
2023-01-29T00:07:17.913Z,11.60
2023-01-29T00:07:28.025Z,11.30
2023-01-29T00:07:37.965Z,11.10
2023-01-29T00:07:48.004Z,11.20
2023-01-29T00:07:57.957Z,10.80
2023-01-29T00:08:07.925Z,9.90
2023-01-29T00:08:17.919Z,9.80
2023-01-29T00:08:28.027Z,10.70
2023-01-29T00:08:38.022Z,10.70
2023-01-29T00:08:47.915Z,11.20
2023-01-29T00:08:57.907Z,10.80
2023-01-29T00:09:07.964Z,11.30
2023-01-29T00:09:18.010Z,11.60
2023-01-29T00:09:28.012Z,11.10
2023-01-29T00:09:37.993Z,11.50
2023-01-29T00:09:48.028Z,10.70
2023-01-29T00:09:57.992Z,11.40
2023-01-29T00:10:08.017Z,11.20
2023-01-29T00:10:18.237Z,11.00
2023-01-29T00:10:28.013Z,11.10
2023-01-29T00:10:38.017Z,11.20
2023-01-29T00:10:47.994Z,11.80
2023-01-29T00:10:58.025Z,12.40
2023-01-29T00:11:07.982Z,11.90
2023-01-29T00:11:18.023Z,11.80
2023-01-29T00:11:27.910Z,11.30
2023-01-29T00:11:38.025Z,11.50
2023-01-29T00:11:48.009Z,11.60
2023-01-29T00:11:57.986Z,11.20
2023-01-29T00:12:07.977Z,10.90
2023-01-29T00:12:17.988Z,11.40
2023-01-29T00:12:28.016Z,11.50
2023-01-29T00:12:37.968Z,11.70
2023-01-29T00:12:47.995Z,10.80
2023-01-29T00:12:58.006Z,10.90
2023-01-29T00:13:07.932Z,11.00
2023-01-29T00:13:18.010Z,11.10
2023-01-29T00:13:28.032Z,11.10
2023-01-29T00:13:37.989Z,11.60
2023-01-29T00:13:47.929Z,11.50
2023-01-29T00:13:58.015Z,11.70
2023-01-29T00:14:07.941Z,11.40
2023-01-29T00:14:17.979Z,11.80
2023-01-29T00:14:28.002Z,11.90
2023-01-29T00:14:37.999Z,11.90
2023-01-29T00:14:47.924Z,11.90
2023-01-29T00:14:57.961Z,11.70
2023-01-29T00:15:07.908Z,11.20
2023-01-29T00:15:17.987Z,12.00
2023-01-29T00:15:27.989Z,11.20
2023-01-29T00:15:37.916Z,11.10
2023-01-29T00:15:48.012Z,10.50
2023-01-29T00:15:58.022Z,10.90
2023-01-29T00:16:08.011Z,10.80
2023-01-29T00:16:17.954Z,10.60
2023-01-29T00:16:27.976Z,10.90
2023-01-29T00:16:38.007Z,11.50
2023-01-29T00:16:47.926Z,11.70
2023-01-29T00:16:57.951Z,12.40
2023-01-29T00:17:08.058Z,12.10
2023-01-29T00:17:18.084Z,11.90
2023-01-29T00:17:27.916Z,11.30
2023-01-29T00:17:37.919Z,11.00
2023-01-29T00:17:48.002Z,11.10
2023-01-29T00:17:57.918Z,11.10
2023-01-29T00:18:08.014Z,11.60
2023-01-29T00:18:18.024Z,11.20
2023-01-29T00:18:27.956Z,11.70
2023-01-29T00:18:37.968Z,11.40
2023-01-29T00:18:47.916Z,11.50
2023-01-29T00:18:58.009Z,10.70
2023-01-29T00:19:07.966Z,10.80
2023-01-29T00:19:17.992Z,11.00
2023-01-29T00:19:27.926Z,11.40
2023-01-29T00:19:37.982Z,11.40
2023-01-29T00:19:48.026Z,11.80
2023-01-29T00:19:58.030Z,11.70
2023-01-29T00:20:07.924Z,11.30
2023-01-29T00:20:18.404Z,10.80
2023-01-29T00:20:27.920Z,10.60
2023-01-29T00:20:38.019Z,10.70
2023-01-29T00:20:48.017Z,10.60
2023-01-29T00:20:58.034Z,10.60
2023-01-29T00:21:08.020Z,11.00
2023-01-29T00:21:17.932Z,11.30
2023-01-29T00:21:27.929Z,11.10
2023-01-29T00:21:37.923Z,11.00
2023-01-29T00:21:47.943Z,10.70
2023-01-29T00:21:57.972Z,10.90
2023-01-29T00:22:07.980Z,10.90
2023-01-29T00:22:17.924Z,11.10
2023-01-29T00:22:27.967Z,11.10
2023-01-29T00:22:37.991Z,11.30
2023-01-29T00:22:48.044Z,11.50
2023-01-29T00:22:57.991Z,11.10
2023-01-29T00:23:07.922Z,10.70
2023-01-29T00:23:17.929Z,10.70
2023-01-29T00:23:28.002Z,10.60
2023-01-29T00:23:37.969Z,11.20
2023-01-29T00:23:48.007Z,10.70
2023-01-29T00:23:58.074Z,10.30
2023-01-29T00:24:07.984Z,9.80
2023-01-29T00:24:17.994Z,9.80
2023-01-29T00:24:28.112Z,10.50
2023-01-29T00:24:37.900Z,10.50
2023-01-29T00:24:48.025Z,10.50
2023-01-29T00:24:57.982Z,10.20
2023-01-29T00:25:07.914Z,10.00
2023-01-29T00:25:17.920Z,9.60
2023-01-29T00:25:27.905Z,9.80
2023-01-29T00:25:37.992Z,9.90
2023-01-29T00:25:48.009Z,10.20
2023-01-29T00:25:57.938Z,10.40
2023-01-29T00:26:07.928Z,10.20
2023-01-29T00:26:17.963Z,10.10
2023-01-29T00:26:27.955Z,9.60
2023-01-29T00:26:38.036Z,9.40
2023-01-29T00:26:48.032Z,10.00
2023-01-29T00:26:57.909Z,10.20
2023-01-29T00:27:07.976Z,10.60
2023-01-29T00:27:17.950Z,10.10
2023-01-29T00:27:27.981Z,9.40
2023-01-29T00:27:37.967Z,9.10
2023-01-29T00:27:47.949Z,9.00
2023-01-29T00:27:57.990Z,9.90
2023-01-29T00:28:07.899Z,9.80
2023-01-29T00:28:18.036Z,9.70
2023-01-29T00:28:27.932Z,9.30
2023-01-29T00:28:37.904Z,9.30
2023-01-29T00:28:48.012Z,10.00
2023-01-29T00:28:57.921Z,9.90
2023-01-29T00:29:07.992Z,9.40
2023-01-29T00:29:18.050Z,9.50
2023-01-29T00:29:27.950Z,9.80
2023-01-29T00:29:38.009Z,10.50
2023-01-29T00:29:47.923Z,10.30
2023-01-29T00:29:57.948Z,9.90
2023-01-29T00:30:07.990Z,9.40
2023-01-29T00:30:18.405Z,9.70
2023-01-29T00:30:27.904Z,10.40
2023-01-29T00:30:37.990Z,10.50
2023-01-29T00:30:48.018Z,10.60
2023-01-29T00:30:58.070Z,10.10
2023-01-29T00:31:08.135Z,9.70
2023-01-29T00:31:18.143Z,9.20
2023-01-29T00:31:28.168Z,9.10
2023-01-29T00:31:38.100Z,9.50
2023-01-29T00:31:48.174Z,9.90
2023-01-29T00:31:58.147Z,10.30
2023-01-29T00:32:08.084Z,10.20
2023-01-29T00:32:18.109Z,10.00
2023-01-29T00:32:27.959Z,9.90
2023-01-29T00:32:37.937Z,9.80
2023-01-29T00:32:48.008Z,10.20
2023-01-29T00:32:58.028Z,10.30
2023-01-29T00:33:07.982Z,10.80
2023-01-29T00:33:17.994Z,10.80
2023-01-29T00:33:27.997Z,10.40
2023-01-29T00:33:38.017Z,9.90
2023-01-29T00:33:47.933Z,10.00
2023-01-29T00:33:57.958Z,10.30
2023-01-29T00:34:07.951Z,10.60
2023-01-29T00:34:17.924Z,10.30
2023-01-29T00:34:27.941Z,10.10
2023-01-29T00:34:37.977Z,9.50
2023-01-29T00:34:48.021Z,9.70
2023-01-29T00:34:57.964Z,9.80
2023-01-29T00:35:07.984Z,10.30
2023-01-29T00:35:17.922Z,9.80
2023-01-29T00:35:27.968Z,10.00
2023-01-29T00:35:37.956Z,9.60
2023-01-29T00:35:48.023Z,9.90
2023-01-29T00:35:57.932Z,9.60
2023-01-29T00:36:07.939Z,9.90
2023-01-29T00:36:18.002Z,10.00
2023-01-29T00:36:28.033Z,9.80
2023-01-29T00:36:37.943Z,10.40
2023-01-29T00:36:48.004Z,9.80
2023-01-29T00:36:57.905Z,10.10
2023-01-29T00:37:07.950Z,9.50
2023-01-29T00:37:17.912Z,9.30
2023-01-29T00:37:27.973Z,9.20
2023-01-29T00:37:38.002Z,9.00
2023-01-29T00:37:47.903Z,10.40
2023-01-29T00:37:57.933Z,10.50
2023-01-29T00:38:07.938Z,11.00
2023-01-29T00:38:17.905Z,9.70
2023-01-29T00:38:27.950Z,9.00
2023-01-29T00:38:37.911Z,8.70
2023-01-29T00:38:48.042Z,9.30
2023-01-29T00:38:57.923Z,9.40
2023-01-29T00:39:07.995Z,9.60
2023-01-29T00:39:17.919Z,9.30
2023-01-29T00:39:42.468Z,9.90
2023-01-29T00:39:47.564Z,9.50
2023-01-29T00:39:48.535Z,9.60
2023-01-29T00:39:57.905Z,9.60
2023-01-29T00:40:07.912Z,9.30
2023-01-29T00:40:18.367Z,9.70
2023-01-29T00:40:27.899Z,9.90
2023-01-29T00:40:37.918Z,10.60
2023-01-29T00:40:47.901Z,9.90
2023-01-29T00:40:58.010Z,9.70
2023-01-29T00:41:07.954Z,9.90
2023-01-29T00:41:18.005Z,10.20
2023-01-29T00:41:27.964Z,10.00
2023-01-29T00:41:37.926Z,9.20
2023-01-29T00:41:47.961Z,9.80
2023-01-29T00:41:57.965Z,10.10
2023-01-29T00:42:07.902Z,10.70
2023-01-29T00:42:17.981Z,9.90
2023-01-29T00:42:28.000Z,9.20
2023-01-29T00:42:37.962Z,9.10
2023-01-29T00:42:48.029Z,9.40
2023-01-29T00:42:57.942Z,9.70
2023-01-29T00:43:07.978Z,9.70
2023-01-29T00:43:17.900Z,9.30
2023-01-29T00:43:27.991Z,9.50
2023-01-29T00:43:37.957Z,9.20
2023-01-29T00:43:48.024Z,9.30
2023-01-29T00:43:57.975Z,9.20
2023-01-29T00:44:07.976Z,9.50
2023-01-29T00:44:17.981Z,9.20
2023-01-29T00:44:27.951Z,9.00
2023-01-29T00:44:37.919Z,9.00
2023-01-29T00:44:47.936Z,9.20
2023-01-29T00:44:58.044Z,8.70
2023-01-29T00:45:08.023Z,8.20
2023-01-29T00:45:17.950Z,7.90
2023-01-29T00:45:28.013Z,8.20
2023-01-29T00:45:38.029Z,8.50
2023-01-29T00:45:47.971Z,8.60
2023-01-29T00:45:58.006Z,9.00
2023-01-29T00:46:07.920Z,8.70
2023-01-29T00:46:17.966Z,9.20
2023-01-29T00:46:28.031Z,8.40
2023-01-29T00:46:38.024Z,8.60
2023-01-29T00:46:47.961Z,8.70
2023-01-29T00:46:57.997Z,9.90
2023-01-29T00:47:08.013Z,9.80
2023-01-29T00:47:17.994Z,9.80
2023-01-29T00:47:28.003Z,9.50
2023-01-29T00:47:38.006Z,9.60
2023-01-29T00:47:48.012Z,9.50
2023-01-29T00:47:57.937Z,9.20
2023-01-29T00:48:08.024Z,9.20
2023-01-29T00:48:18.027Z,8.70
2023-01-29T00:48:27.921Z,8.80
2023-01-29T00:48:38.025Z,9.20
2023-01-29T00:48:47.940Z,9.00
2023-01-29T00:49:00.111Z,8.80
2023-01-29T00:49:08.034Z,7.60
2023-01-29T00:49:17.994Z,7.40
2023-01-29T00:49:27.943Z,7.30
2023-01-29T00:49:37.999Z,7.90
2023-01-29T00:49:47.909Z,8.10
2023-01-29T00:49:58.048Z,8.70
2023-01-29T00:50:07.914Z,8.50
2023-01-29T00:50:18.512Z,9.20
2023-01-29T00:50:27.971Z,8.60
2023-01-29T00:50:37.911Z,8.90
2023-01-29T00:50:47.969Z,8.50
2023-01-29T00:50:58.008Z,8.90
2023-01-29T00:51:07.908Z,8.90
2023-01-29T00:51:17.960Z,9.20
2023-01-29T00:51:27.918Z,9.30
2023-01-29T00:51:38.022Z,9.40
2023-01-29T00:51:47.991Z,9.00
2023-01-29T00:51:58.028Z,8.30
2023-01-29T00:52:07.939Z,7.70
2023-01-29T00:52:17.987Z,7.30
2023-01-29T00:52:27.926Z,7.80
2023-01-29T00:52:37.937Z,7.70
2023-01-29T00:52:48.007Z,8.10
2023-01-29T00:52:58.032Z,8.20
2023-01-29T00:53:08.005Z,8.40
2023-01-29T00:53:17.912Z,8.80
2023-01-29T00:53:28.033Z,8.80
2023-01-29T00:53:38.013Z,9.10
2023-01-29T00:53:47.993Z,9.20
2023-01-29T00:53:57.951Z,8.90
2023-01-29T00:54:08.023Z,8.80
2023-01-29T00:54:18.013Z,8.60
2023-01-29T00:54:27.959Z,8.30
2023-01-29T00:54:37.949Z,8.80
2023-01-29T00:54:47.928Z,8.50
2023-01-29T00:54:58.036Z,8.70
2023-01-29T00:55:07.899Z,7.90
2023-01-29T00:55:17.914Z,8.40
2023-01-29T00:55:28.039Z,8.50
2023-01-29T00:55:37.992Z,8.90
2023-01-29T00:55:48.017Z,9.00
2023-01-29T00:55:57.951Z,9.00
2023-01-29T00:56:07.942Z,9.50
2023-01-29T00:56:17.941Z,9.30
2023-01-29T00:56:28.481Z,9.20
2023-01-29T00:56:38.000Z,8.50
2023-01-29T00:56:47.908Z,8.00
2023-01-29T00:56:57.988Z,8.30
2023-01-29T00:57:07.993Z,8.10
2023-01-29T00:57:18.024Z,8.50
2023-01-29T00:57:27.911Z,8.40
2023-01-29T00:57:37.979Z,8.50
2023-01-29T00:57:48.003Z,8.30
2023-01-29T00:57:57.962Z,8.40
2023-01-29T00:58:08.028Z,8.10
2023-01-29T00:58:17.914Z,8.10
2023-01-29T00:58:27.896Z,7.80
2023-01-29T00:58:37.969Z,8.40
2023-01-29T00:58:47.938Z,8.30
2023-01-29T00:58:58.006Z,8.80
2023-01-29T00:59:08.010Z,8.50
2023-01-29T00:59:17.961Z,8.50
2023-01-29T00:59:28.005Z,8.00
2023-01-29T00:59:37.988Z,7.90
2023-01-29T00:59:47.922Z,8.20
2023-01-29T00:59:57.999Z,8.70
2023-01-29T01:00:07.953Z,9.30
2023-01-29T01:00:18.457Z,8.80
2023-01-29T01:00:27.916Z,8.10
2023-01-29T01:00:38.139Z,7.40
2023-01-29T01:00:47.990Z,7.70
2023-01-29T01:00:57.999Z,8.30
2023-01-29T01:01:07.994Z,8.30
2023-01-29T01:01:17.965Z,8.30
2023-01-29T01:01:27.905Z,8.00
2023-01-29T01:01:38.007Z,7.90
2023-01-29T01:01:48.088Z,7.40
2023-01-29T01:01:58.113Z,7.10
2023-01-29T01:02:08.046Z,8.10
2023-01-29T01:02:18.035Z,8.80
2023-01-29T01:02:27.951Z,9.00
2023-01-29T01:02:37.958Z,8.70
2023-01-29T01:02:48.023Z,8.60
2023-01-29T01:02:57.923Z,8.30
2023-01-29T01:03:08.099Z,8.20
2023-01-29T01:03:17.942Z,8.10
2023-01-29T01:03:27.937Z,8.40
2023-01-29T01:03:37.991Z,8.20
2023-01-29T01:03:47.953Z,8.30
2023-01-29T01:03:57.974Z,8.30
2023-01-29T01:04:08.033Z,8.20
2023-01-29T01:04:18.034Z,8.10
2023-01-29T01:04:27.923Z,8.30
2023-01-29T01:04:37.934Z,8.60
2023-01-29T01:04:47.980Z,8.60
2023-01-29T01:04:58.019Z,8.20
2023-01-29T01:05:07.981Z,7.60
2023-01-29T01:05:18.324Z,7.20
2023-01-29T01:05:27.957Z,8.00
2023-01-29T01:05:37.999Z,8.50
2023-01-29T01:05:47.919Z,8.90
2023-01-29T01:05:57.897Z,8.50
2023-01-29T01:06:07.983Z,8.00
2023-01-29T01:06:17.990Z,7.90
2023-01-29T01:06:27.939Z,7.70
2023-01-29T01:06:37.970Z,7.90
2023-01-29T01:06:47.998Z,7.20
2023-01-29T01:06:57.919Z,6.90
2023-01-29T01:07:07.955Z,7.10
2023-01-29T01:07:15.020Z,7.60
2023-01-29T01:07:15.221Z,7.60
2023-01-29T01:07:15.433Z,7.60
2023-01-29T01:07:15.636Z,7.60
2023-01-29T01:07:15.858Z,7.60
2023-01-29T01:07:16.051Z,7.60
2023-01-29T01:07:25.072Z,8.70
2023-01-29T01:07:35.105Z,8.40
2023-01-29T01:07:45.067Z,8.50
2023-01-29T01:07:55.103Z,8.40
2023-01-29T01:08:05.014Z,8.70
2023-01-29T01:08:15.089Z,8.40
2023-01-29T01:08:25.016Z,8.30
2023-01-29T01:08:35.114Z,8.30
2023-01-29T01:08:45.065Z,8.30
2023-01-29T01:08:55.054Z,7.80
2023-01-29T01:09:05.080Z,7.10
2023-01-29T01:09:15.073Z,8.00
2023-01-29T01:09:25.014Z,8.30
2023-01-29T01:09:35.065Z,8.60
2023-01-29T01:09:45.071Z,7.50
2023-01-29T01:09:55.134Z,7.60
2023-01-29T01:10:05.131Z,7.70
2023-01-29T01:10:15.284Z,8.00
2023-01-29T01:10:25.036Z,7.40
2023-01-29T01:10:35.078Z,7.60
2023-01-29T01:10:45.047Z,7.60
2023-01-29T01:10:55.016Z,8.40
2023-01-29T01:11:05.083Z,8.10
2023-01-29T01:11:15.104Z,8.70
2023-01-29T01:11:25.032Z,8.50
2023-01-29T01:11:35.075Z,9.00
2023-01-29T01:11:45.041Z,8.60
2023-01-29T01:11:55.030Z,8.80
2023-01-29T01:12:05.036Z,8.60
2023-01-29T01:12:15.106Z,8.20
2023-01-29T01:12:25.044Z,7.90
2023-01-29T01:12:35.072Z,7.80
2023-01-29T01:12:45.156Z,8.00
2023-01-29T01:12:55.073Z,7.80
2023-01-29T01:13:05.031Z,7.70
2023-01-29T01:13:15.020Z,7.60
2023-01-29T01:13:25.051Z,8.30
2023-01-29T01:13:35.096Z,8.50
2023-01-29T01:13:45.053Z,8.90
2023-01-29T01:13:55.074Z,8.90
2023-01-29T01:14:05.106Z,8.60
2023-01-29T01:14:15.005Z,8.60
2023-01-29T01:14:25.036Z,8.10
2023-01-29T01:14:35.135Z,8.20
2023-01-29T01:14:45.059Z,7.90
2023-01-29T01:14:55.064Z,8.30
2023-01-29T01:15:05.100Z,8.70
2023-01-29T01:15:15.071Z,8.40
2023-01-29T01:15:25.081Z,8.30
2023-01-29T01:15:35.094Z,8.40
2023-01-29T01:15:45.027Z,9.00
2023-01-29T01:15:55.155Z,8.80
2023-01-29T01:16:05.065Z,8.70
2023-01-29T01:16:15.078Z,8.20
2023-01-29T01:16:25.119Z,8.40
2023-01-29T01:16:35.177Z,8.40
2023-01-29T01:16:45.088Z,8.50
2023-01-29T01:16:55.075Z,8.70
2023-01-29T01:17:05.009Z,9.00
2023-01-29T01:17:15.068Z,9.20
2023-01-29T01:17:25.043Z,9.20
2023-01-29T01:17:35.011Z,9.30
2023-01-29T01:17:45.129Z,9.20
2023-01-29T01:17:55.060Z,8.50
2023-01-29T01:18:05.068Z,7.80
2023-01-29T01:18:15.135Z,7.60
2023-01-29T01:18:25.074Z,8.10
2023-01-29T01:18:35.082Z,8.50
2023-01-29T01:18:45.082Z,8.80
2023-01-29T01:18:55.068Z,8.60
2023-01-29T01:19:05.118Z,8.50
2023-01-29T01:19:15.072Z,8.90
2023-01-29T01:19:25.057Z,9.00
2023-01-29T01:19:35.134Z,8.80
2023-01-29T01:19:45.021Z,8.40
2023-01-29T01:19:55.127Z,8.50
2023-01-29T01:20:05.010Z,8.30
2023-01-29T01:20:15.426Z,8.00
2023-01-29T01:20:25.120Z,7.70
2023-01-29T01:20:35.145Z,8.20
2023-01-29T01:20:45.048Z,8.40
2023-01-29T01:20:55.132Z,8.30
2023-01-29T01:21:05.062Z,7.90
2023-01-29T01:21:15.080Z,7.70
2023-01-29T01:21:25.117Z,7.90
2023-01-29T01:21:35.022Z,8.00
2023-01-29T01:21:45.142Z,8.00
2023-01-29T01:21:55.090Z,8.00
2023-01-29T01:22:05.053Z,7.90
2023-01-29T01:22:15.037Z,8.50
2023-01-29T01:22:25.070Z,8.50
2023-01-29T01:22:35.021Z,8.60
2023-01-29T01:22:45.082Z,8.30
2023-01-29T01:22:55.125Z,8.20
2023-01-29T01:23:05.014Z,8.20
2023-01-29T01:23:15.139Z,8.10
2023-01-29T01:23:25.020Z,8.00
2023-01-29T01:23:35.113Z,8.10
2023-01-29T01:23:45.087Z,7.40
2023-01-29T01:23:55.196Z,7.20
2023-01-29T01:24:05.126Z,7.40
2023-01-29T01:24:15.120Z,7.60
2023-01-29T01:24:25.087Z,7.90
2023-01-29T01:24:35.040Z,7.40
2023-01-29T01:24:45.019Z,7.40
2023-01-29T01:24:55.030Z,7.40
2023-01-29T01:25:05.049Z,7.60
2023-01-29T01:25:15.089Z,7.70
2023-01-29T01:25:25.022Z,7.70
2023-01-29T01:25:35.091Z,7.80
2023-01-29T01:25:45.109Z,7.90
2023-01-29T01:25:55.075Z,7.60
2023-01-29T01:26:05.114Z,7.80
2023-01-29T01:26:15.120Z,8.40
2023-01-29T01:26:25.144Z,8.50
2023-01-29T01:26:35.045Z,8.40
2023-01-29T01:26:45.043Z,7.60
2023-01-29T01:26:55.058Z,7.60
2023-01-29T01:27:05.141Z,7.70
2023-01-29T01:27:15.096Z,7.50
2023-01-29T01:27:25.004Z,7.40
2023-01-29T01:27:35.059Z,7.10
2023-01-29T01:27:45.044Z,7.60
2023-01-29T01:27:55.074Z,8.10
2023-01-29T01:28:03.332Z,8.20
2023-01-29T01:28:03.570Z,8.20
2023-01-29T01:28:03.813Z,8.20
2023-01-29T01:28:04.033Z,8.20
2023-01-29T01:28:04.226Z,8.30
2023-01-29T01:28:04.430Z,8.30
2023-01-29T01:28:13.285Z,7.50
2023-01-29T01:28:23.321Z,6.80
2023-01-29T01:28:33.271Z,7.00
2023-01-29T01:28:43.333Z,7.80
2023-01-29T01:28:53.255Z,8.50
2023-01-29T01:29:03.369Z,8.10
2023-01-29T01:29:13.315Z,8.20
2023-01-29T01:29:23.405Z,7.70
2023-01-29T01:29:33.348Z,7.70
2023-01-29T01:29:43.265Z,7.20
2023-01-29T01:29:53.283Z,7.40
2023-01-29T01:30:03.299Z,7.80
2023-01-29T01:30:13.440Z,7.40
2023-01-29T01:30:23.285Z,7.40
2023-01-29T01:30:33.387Z,7.70
2023-01-29T01:30:43.421Z,8.00
2023-01-29T01:30:53.371Z,8.70
2023-01-29T01:31:03.367Z,8.50
2023-01-29T01:31:13.465Z,8.40
2023-01-29T01:31:23.449Z,7.90
2023-01-29T01:31:33.435Z,7.90
2023-01-29T01:31:43.481Z,8.30
2023-01-29T01:31:53.336Z,8.40
2023-01-29T01:32:03.445Z,7.70
2023-01-29T01:32:13.370Z,7.70
2023-01-29T01:32:23.380Z,7.60
2023-01-29T01:32:33.380Z,7.50
2023-01-29T01:32:43.379Z,7.70
2023-01-29T01:32:53.421Z,8.20
2023-01-29T01:33:03.382Z,8.80
2023-01-29T01:33:13.368Z,8.70
2023-01-29T01:33:23.312Z,8.20
2023-01-29T01:33:33.316Z,7.90
2023-01-29T01:33:43.298Z,8.00
2023-01-29T01:33:53.343Z,8.10
2023-01-29T01:34:03.379Z,8.50
2023-01-29T01:34:13.294Z,8.00
2023-01-29T01:34:23.259Z,8.10
2023-01-29T01:34:33.346Z,8.40
2023-01-29T01:34:43.382Z,8.00
2023-01-29T01:34:53.279Z,7.90
2023-01-29T01:35:03.373Z,7.30
2023-01-29T01:35:13.275Z,7.90
2023-01-29T01:35:23.307Z,7.80
2023-01-29T01:35:33.344Z,7.70
2023-01-29T01:35:43.344Z,7.30
2023-01-29T01:35:53.287Z,7.70
2023-01-29T01:36:03.333Z,7.90
2023-01-29T01:36:13.343Z,7.90
2023-01-29T01:36:23.274Z,7.40
2023-01-29T01:36:33.399Z,7.20
2023-01-29T01:36:43.280Z,7.40
2023-01-29T01:36:53.314Z,7.10
2023-01-29T01:37:03.323Z,6.80
2023-01-29T01:37:13.331Z,6.60
2023-01-29T01:37:23.329Z,7.10
2023-01-29T01:37:33.364Z,7.20
2023-01-29T01:37:43.275Z,7.40
2023-01-29T01:37:53.367Z,7.10
2023-01-29T01:38:03.315Z,6.90
2023-01-29T01:38:13.372Z,7.30
2023-01-29T01:38:23.324Z,7.40
2023-01-29T01:38:33.288Z,7.20
2023-01-29T01:38:43.351Z,6.90
2023-01-29T01:38:53.296Z,6.50
2023-01-29T01:39:03.316Z,7.10
2023-01-29T01:39:13.356Z,7.50
2023-01-29T01:39:23.377Z,7.90
2023-01-29T01:39:33.363Z,7.60
2023-01-29T01:39:43.371Z,7.00
2023-01-29T01:39:53.370Z,7.10
2023-01-29T01:40:03.330Z,7.20
2023-01-29T01:40:13.489Z,7.00
2023-01-29T01:40:23.310Z,7.20
2023-01-29T01:40:33.341Z,7.10
2023-01-29T01:40:43.312Z,7.50
2023-01-29T01:40:53.264Z,7.90
2023-01-29T01:41:03.293Z,8.00
2023-01-29T01:41:13.373Z,7.80
2023-01-29T01:41:23.408Z,6.90
2023-01-29T01:41:33.355Z,6.90
2023-01-29T01:41:43.343Z,7.80
2023-01-29T01:41:53.348Z,7.90
2023-01-29T01:42:03.419Z,7.90
2023-01-29T01:42:13.400Z,7.10
2023-01-29T01:42:23.329Z,7.30
2023-01-29T01:42:33.261Z,7.00
2023-01-29T01:42:43.285Z,6.80
2023-01-29T01:42:53.278Z,6.50
2023-01-29T01:43:03.327Z,6.60
2023-01-29T01:43:13.291Z,6.80
2023-01-29T01:43:23.357Z,7.20
2023-01-29T01:43:33.270Z,7.30
2023-01-29T01:43:43.343Z,6.50
2023-01-29T01:43:53.357Z,6.40
2023-01-29T01:44:03.331Z,6.90
2023-01-29T01:44:13.293Z,7.80
2023-01-29T01:44:23.285Z,7.20
2023-01-29T01:44:33.310Z,6.40
2023-01-29T01:44:43.331Z,6.40
2023-01-29T01:44:53.283Z,6.80
2023-01-29T01:45:03.389Z,7.20
2023-01-29T01:45:13.261Z,7.30
2023-01-29T01:45:23.345Z,7.00
2023-01-29T01:45:33.356Z,7.00
2023-01-29T01:45:43.274Z,6.50
2023-01-29T01:45:53.570Z,6.90
2023-01-29T01:46:03.348Z,6.40
2023-01-29T01:46:13.448Z,6.30
2023-01-29T01:46:23.326Z,6.10
2023-01-29T01:46:33.301Z,6.40
2023-01-29T01:46:43.274Z,6.60
2023-01-29T01:46:53.362Z,6.90
2023-01-29T01:47:03.325Z,6.90
2023-01-29T01:47:13.317Z,7.20
2023-01-29T01:47:23.311Z,7.20
2023-01-29T01:47:33.305Z,7.30
2023-01-29T01:47:43.290Z,6.80
2023-01-29T01:47:53.281Z,6.50
2023-01-29T01:48:03.353Z,6.80
2023-01-29T01:48:13.305Z,7.10
2023-01-29T01:48:23.343Z,7.20
2023-01-29T01:48:33.372Z,6.60
2023-01-29T01:48:43.360Z,6.40
2023-01-29T01:48:53.391Z,6.30
2023-01-29T01:49:03.396Z,6.80
2023-01-29T01:49:13.380Z,6.60
2023-01-29T01:49:23.328Z,6.50
2023-01-29T01:49:33.343Z,6.30
2023-01-29T01:49:43.298Z,6.30
2023-01-29T01:49:53.293Z,6.00
2023-01-29T01:50:03.394Z,6.00
2023-01-29T01:50:13.477Z,6.40
2023-01-29T01:50:23.282Z,6.50
2023-01-29T01:50:33.264Z,6.40
2023-01-29T01:50:43.309Z,5.90
2023-01-29T01:50:53.358Z,6.20
2023-01-29T01:51:03.312Z,6.10
2023-01-29T01:51:13.339Z,5.60
2023-01-29T01:51:23.282Z,5.20
2023-01-29T01:51:33.315Z,4.90
2023-01-29T01:51:43.286Z,4.90
2023-01-29T01:51:53.305Z,5.20
2023-01-29T01:52:03.309Z,5.40
2023-01-29T01:52:13.374Z,5.50
2023-01-29T01:52:23.286Z,5.10
2023-01-29T01:52:33.358Z,5.40
2023-01-29T01:52:43.293Z,5.70
2023-01-29T01:52:53.300Z,5.80
2023-01-29T01:53:03.385Z,5.70
2023-01-29T01:53:13.376Z,5.80
2023-01-29T01:53:23.274Z,6.20
2023-01-29T01:53:33.363Z,5.80
2023-01-29T01:53:43.359Z,5.50
2023-01-29T01:53:53.317Z,5.20
2023-01-29T01:54:03.311Z,5.30
2023-01-29T01:54:13.282Z,5.00
2023-01-29T01:54:23.329Z,4.70
2023-01-29T01:54:33.385Z,4.80
2023-01-29T01:54:43.299Z,5.10
2023-01-29T01:54:53.278Z,5.80
2023-01-29T01:55:03.332Z,5.90
2023-01-29T01:55:13.333Z,5.60
2023-01-29T01:55:23.364Z,5.00
2023-01-29T01:55:33.298Z,4.80
2023-01-29T01:55:43.298Z,4.90
2023-01-29T01:55:53.384Z,4.90
2023-01-29T01:56:03.255Z,4.80
2023-01-29T01:56:13.369Z,4.90
2023-01-29T01:56:23.308Z,5.30
2023-01-29T01:56:33.339Z,5.80
2023-01-29T01:56:43.313Z,5.50
2023-01-29T01:56:53.281Z,4.90
2023-01-29T01:57:03.280Z,4.50
2023-01-29T01:57:13.291Z,5.00
2023-01-29T01:57:23.274Z,5.70
2023-01-29T01:57:33.259Z,5.90
2023-01-29T01:57:43.366Z,6.00
2023-01-29T01:57:53.349Z,5.20
2023-01-29T01:58:03.380Z,4.90
2023-01-29T01:58:13.431Z,4.60
2023-01-29T01:58:23.327Z,5.00
2023-01-29T01:58:33.374Z,5.00
2023-01-29T01:58:43.388Z,5.20
2023-01-29T01:58:53.370Z,5.60
2023-01-29T01:59:03.343Z,5.70
2023-01-29T01:59:13.315Z,6.00
2023-01-29T01:59:23.359Z,6.00
2023-01-29T01:59:33.380Z,6.60
2023-01-29T01:59:43.325Z,6.60
2023-01-29T01:59:53.281Z,6.60
2023-01-29T02:00:03.286Z,6.40
2023-01-29T02:00:13.404Z,6.00
2023-01-29T02:00:23.364Z,6.50
2023-01-29T02:00:33.287Z,5.80
2023-01-29T02:00:43.382Z,6.30
2023-01-29T02:00:53.333Z,5.70
2023-01-29T02:01:03.296Z,6.60
2023-01-29T02:01:13.330Z,6.40
2023-01-29T02:01:25.702Z,6.60
2023-01-29T02:01:33.325Z,6.40
2023-01-29T02:01:43.263Z,6.50
2023-01-29T02:01:53.304Z,6.00
2023-01-29T02:02:03.361Z,5.70
2023-01-29T02:02:13.342Z,6.40
2023-01-29T02:02:23.281Z,7.10
2023-01-29T02:02:33.339Z,7.30
2023-01-29T02:02:43.393Z,6.90
2023-01-29T02:02:53.272Z,6.50
2023-01-29T02:03:03.357Z,6.90
2023-01-29T02:03:13.334Z,6.80
2023-01-29T02:03:23.363Z,6.80
2023-01-29T02:03:33.332Z,6.90
2023-01-29T02:03:43.291Z,6.50
2023-01-29T02:03:53.287Z,6.50
2023-01-29T02:04:03.378Z,5.80
2023-01-29T02:04:13.380Z,6.30
2023-01-29T02:04:23.295Z,6.50
2023-01-29T02:04:33.311Z,6.40
2023-01-29T02:04:43.263Z,6.10
2023-01-29T02:04:53.332Z,5.90
2023-01-29T02:05:03.372Z,5.90
2023-01-29T02:05:13.339Z,6.10
2023-01-29T02:05:23.361Z,5.70
2023-01-29T02:05:33.293Z,6.20
2023-01-29T02:05:43.267Z,6.60
2023-01-29T02:05:53.287Z,7.00
2023-01-29T02:06:03.376Z,7.20
2023-01-29T02:06:13.350Z,7.10
2023-01-29T02:06:23.391Z,7.50
2023-01-29T02:06:33.317Z,7.40
2023-01-29T02:06:43.266Z,7.60
2023-01-29T02:06:53.326Z,7.00
2023-01-29T02:07:03.289Z,6.80
2023-01-29T02:07:13.343Z,7.00
2023-01-29T02:07:23.280Z,7.50
2023-01-29T02:07:33.386Z,8.00
2023-01-29T02:07:43.376Z,7.80
2023-01-29T02:07:53.282Z,7.40
2023-01-29T02:08:03.328Z,6.60
2023-01-29T02:08:13.352Z,6.80
2023-01-29T02:08:23.348Z,6.50
2023-01-29T02:08:33.387Z,6.90
2023-01-29T02:08:43.358Z,6.60
2023-01-29T02:08:53.339Z,7.70
2023-01-29T02:09:03.385Z,7.60
2023-01-29T02:09:13.287Z,7.80
2023-01-29T02:09:23.287Z,6.90
2023-01-29T02:09:33.377Z,6.70
2023-01-29T02:09:43.316Z,6.40
2023-01-29T02:09:53.471Z,6.70
2023-01-29T02:10:03.370Z,7.30
2023-01-29T02:10:13.379Z,7.60
2023-01-29T02:10:23.389Z,7.80